Terminal Aerodrome Forecast
Issued by NWS

Home | Current Version | Previous Version | Text Only | Print | Product List | Glossary On
Versions: 1 2 3 4 5 6 7 8 9 10 11 12 13 14 15
000
FTUS46 KSEW 282000 AAA
TAFHQM
TAF AMD
KHQM 282023Z 2820/2918 23011KT P6SM SKC
     FM290300 26005KT P6SM SKC
     FM291200 24003KT 5SM BR BKN008=

USA.gov is the U.S. government's official web portal to all federal, state and local government web resources and services.